Decoded Metar for UWUU (UFA in RUSSIA) (IATA:UFA) | Meteo·Mobile Aviation Weather
aviador You're here:

UWUU Decoded Metar

UFA in RUSSIA
Report Time2018-10-22 22:30:00
UTC Time2018-10-22 22:47:11
Flight Rules vfr VFR
Wind200° at 8 kt
W.Decomp.*RWY 14: 5.5 kt HW 5.9 kt RCW
W.Rank200° ranks 1
Current wind is below 200° avg. (9.6)
Visibility9999 m
Phenomena:N/A
Clouds:Scattered 040 Hf
Expected CloudBase > 800 ft AGL from Temp-Dew spread
CeilingNone
Temp-1°C (ISA -15)
Dew Point-3°C (86% RH)
AAT-6.3°C
QNH1022 hPa
Density Alt-1,637 ft
Elevation449 ft
Report Wrong Elevation
Raw Report
UWUU 222230Z 20004MPS 9999 SCT040 M01/M03 Q1022 R14R/0///60 NOSIG
RMK QFE756/1008=

Extra information for UWUU:More info

Metar Taf Metar & Taf Last 4 Metars F.Rules Stats Wind Profile Meteogram Temp Stats Airport Information Weather charts Add Link Nearby VenuesMetar ALERT Operation Metar Decoded Social comments